createdAt,value
2022-08-14T00:02:05.424Z,23.60
2022-08-14T00:07:11.359Z,23.87
2022-08-14T00:12:23.949Z,23.77
2022-08-14T00:17:28.270Z,23.67
2022-08-14T00:22:56.390Z,23.76
2022-08-14T00:27:56.179Z,23.65
2022-08-14T00:33:16.268Z,23.74
2022-08-14T00:38:19.838Z,23.65
2022-08-14T00:43:21.966Z,23.68
2022-08-14T00:48:34.633Z,23.71
2022-08-14T00:53:42.885Z,23.72
2022-08-14T00:58:48.515Z,23.58
2022-08-14T01:03:53.423Z,23.34
2022-08-14T01:08:59.093Z,23.00
2022-08-14T01:14:04.736Z,22.86
2022-08-14T01:19:39.104Z,23.05
2022-08-14T01:24:44.150Z,23.17
2022-08-14T01:30:03.288Z,23.06
2022-08-14T01:35:19.978Z,23.02
2022-08-14T01:40:36.184Z,22.90
2022-08-14T01:45:48.992Z,22.63
2022-08-14T01:50:51.391Z,22.81
2022-08-14T01:55:57.250Z,22.80
2022-08-14T02:00:59.481Z,22.80
2022-08-14T02:06:03.860Z,23.22
2022-08-14T02:11:25.663Z,23.57
2022-08-14T02:16:32.428Z,23.58
2022-08-14T02:21:43.752Z,23.55
2022-08-14T02:28:18.478Z,23.34
2022-08-14T02:32:30.046Z,23.59
2022-08-14T02:37:45.671Z,23.82
2022-08-14T02:42:54.793Z,24.00
2022-08-14T02:48:01.848Z,23.67
2022-08-14T02:53:04.659Z,23.70
2022-08-14T02:58:10.471Z,23.73
2022-08-14T03:03:31.709Z,23.52
2022-08-14T03:08:39.387Z,23.54
2022-08-14T03:13:51.489Z,23.54
2022-08-14T03:19:00.252Z,23.57
2022-08-14T03:24:07.368Z,23.57
2022-08-14T03:29:24.613Z,23.61
2022-08-14T03:34:52.608Z,23.59
2022-08-14T03:39:58.082Z,23.21
2022-08-14T03:45:26.801Z,23.22
2022-08-14T03:50:27.691Z,23.11
2022-08-14T03:55:33.928Z,23.00
2022-08-14T04:00:47.886Z,23.02
2022-08-14T04:05:50.400Z,23.27
2022-08-14T04:10:54.429Z,23.57
2022-08-14T04:16:01.327Z,23.72
2022-08-14T04:21:04.262Z,23.79
2022-08-14T04:26:14.312Z,23.86
2022-08-14T04:32:59.194Z,23.98
2022-08-14T04:36:59.599Z,24.15
2022-08-14T04:42:20.322Z,24.06
2022-08-14T04:47:46.366Z,24.05
2022-08-14T04:52:48.992Z,24.04
2022-08-14T04:57:56.814Z,24.26
2022-08-14T05:03:03.014Z,24.47
2022-08-14T05:08:31.988Z,24.63
2022-08-14T05:14:06.493Z,24.67
2022-08-14T05:19:17.849Z,24.85
2022-08-14T05:24:26.277Z,24.98
2022-08-14T05:29:28.485Z,24.99
2022-08-14T05:34:32.348Z,24.90
2022-08-14T05:39:35.473Z,25.10
2022-08-14T05:44:38.776Z,25.24
2022-08-14T05:49:40.657Z,25.37
2022-08-14T05:54:43.095Z,25.51
2022-08-14T05:59:46.527Z,25.47
2022-08-14T06:04:49.410Z,25.61
2022-08-14T06:09:52.484Z,25.43
2022-08-14T06:14:54.844Z,25.60
2022-08-14T06:20:02.865Z,25.88
2022-08-14T06:25:08.077Z,26.04
2022-08-14T06:30:16.002Z,26.00
2022-08-14T06:35:20.119Z,26.15
2022-08-14T06:40:42.998Z,26.15
2022-08-14T06:45:54.013Z,26.13
2022-08-14T06:50:57.914Z,26.28
2022-08-14T06:56:02.040Z,26.33
2022-08-14T07:01:27.813Z,26.56
2022-08-14T07:06:46.863Z,26.74
2022-08-14T07:11:51.256Z,27.02
2022-08-14T07:16:53.319Z,27.49
2022-08-14T07:21:56.332Z,27.11
2022-08-14T07:26:59.034Z,26.40
2022-08-14T07:32:01.765Z,27.28
2022-08-14T07:37:06.100Z,27.38
2022-08-14T07:42:08.677Z,26.81
2022-08-14T07:47:11.888Z,27.48
2022-08-14T07:52:14.057Z,26.97
2022-08-14T07:57:25.147Z,27.30
2022-08-14T08:02:31.148Z,27.39
2022-08-14T08:07:36.243Z,28.27
2022-08-14T08:12:42.423Z,28.09
2022-08-14T08:17:53.411Z,27.76
2022-08-14T08:23:06.016Z,28.83
2022-08-14T08:28:19.812Z,27.81
2022-08-14T08:33:32.073Z,28.52
2022-08-14T08:39:14.533Z,29.24
2022-08-14T08:44:05.529Z,27.83
2022-08-14T08:49:10.251Z,26.98
2022-08-14T08:54:18.487Z,28.09
2022-08-14T08:59:31.417Z,28.10
2022-08-14T09:04:53.480Z,26.95
2022-08-14T09:09:59.477Z,27.12
2022-08-14T09:15:11.478Z,27.58
2022-08-14T09:20:25.744Z,26.87
2022-08-14T09:26:00.703Z,27.84
2022-08-14T09:31:07.371Z,27.63
2022-08-14T09:36:57.370Z,27.18
2022-08-14T09:42:49.842Z,27.37
2022-08-14T09:47:55.526Z,28.00
2022-08-14T09:53:17.988Z,27.06
2022-08-14T09:58:24.663Z,26.65
2022-08-14T10:03:36.179Z,27.02
2022-08-14T10:08:51.041Z,27.13
2022-08-14T10:13:58.384Z,27.01
2022-08-14T10:19:23.730Z,26.79
2022-08-14T10:24:36.136Z,26.16
2022-08-14T10:29:46.373Z,25.56
2022-08-14T10:34:52.843Z,25.32
2022-08-14T10:40:05.579Z,25.33
2022-08-14T10:45:25.619Z,25.71
2022-08-14T10:50:33.272Z,26.20
2022-08-14T10:55:44.904Z,27.26
2022-08-14T11:00:57.125Z,28.14
2022-08-14T11:06:00.880Z,28.34
2022-08-14T11:11:16.118Z,28.05
2022-08-14T11:16:28.751Z,27.26
2022-08-14T11:21:36.221Z,26.31
2022-08-14T11:26:44.360Z,25.64
2022-08-14T11:31:51.838Z,25.34
2022-08-14T11:37:17.911Z,25.38
2022-08-14T11:42:58.784Z,25.43
2022-08-14T11:48:12.584Z,25.72
2022-08-14T11:53:21.166Z,25.95
2022-08-14T11:58:30.758Z,26.40
2022-08-14T12:03:51.200Z,26.65
2022-08-14T12:08:56.165Z,26.64
2022-08-14T12:14:13.333Z,26.79
2022-08-14T12:19:56.729Z,27.59
2022-08-14T12:25:00.713Z,28.52
2022-08-14T12:30:05.733Z,29.02
2022-08-14T12:35:09.691Z,29.78
2022-08-14T12:40:15.559Z,29.65
2022-08-14T12:45:33.927Z,29.84
2022-08-14T12:50:42.110Z,29.76
2022-08-14T12:56:22.512Z,28.07
2022-08-14T13:01:31.241Z,27.33
2022-08-14T13:06:37.643Z,26.32
2022-08-14T13:11:58.409Z,25.34
2022-08-14T13:17:03.045Z,25.03
2022-08-14T13:22:10.102Z,25.59
2022-08-14T13:27:28.294Z,25.65
2022-08-14T13:32:44.488Z,25.81
2022-08-14T13:37:53.475Z,26.37
2022-08-14T13:43:02.224Z,26.78
2022-08-14T13:48:04.611Z,27.42
2022-08-14T13:53:12.962Z,27.93
2022-08-14T13:58:33.735Z,28.43
2022-08-14T14:03:39.431Z,28.77
2022-08-14T14:08:50.067Z,28.96
2022-08-14T14:14:00.386Z,29.37
2022-08-14T14:19:09.160Z,29.27
2022-08-14T14:24:15.441Z,28.80
2022-08-14T14:29:24.112Z,28.90
2022-08-14T14:34:32.985Z,28.69
2022-08-14T14:40:54.524Z,28.10
2022-08-14T14:45:15.567Z,27.61
2022-08-14T14:50:20.812Z,27.26
2022-08-14T14:55:54.313Z,27.26
2022-08-14T15:00:55.143Z,27.56
2022-08-14T15:05:58.556Z,27.41
2022-08-14T15:11:00.782Z,26.90
2022-08-14T15:16:04.199Z,26.60
2022-08-14T15:21:08.566Z,26.87
2022-08-14T15:26:24.189Z,27.22
2022-08-14T15:31:36.320Z,27.49
2022-08-14T15:36:43.924Z,27.67
2022-08-14T15:41:48.545Z,27.53
2022-08-14T15:46:54.519Z,27.67
2022-08-14T15:51:59.341Z,27.64
2022-08-14T15:57:08.792Z,28.07
2022-08-14T16:02:10.869Z,28.43
2022-08-14T16:07:14.352Z,28.73
2022-08-14T16:12:19.112Z,29.47
2022-08-14T16:17:22.593Z,28.74
2022-08-14T16:22:58.639Z,27.77
2022-08-14T16:27:54.862Z,27.66
2022-08-14T16:38:45.395Z,28.49
2022-08-14T16:43:54.120Z,27.19
2022-08-14T16:49:06.877Z,27.54
2022-08-14T16:54:34.149Z,28.63
2022-08-14T16:59:52.709Z,28.42
2022-08-14T17:05:24.316Z,27.24
2022-08-14T17:10:28.283Z,26.94
2022-08-14T17:15:31.096Z,27.58
2022-08-14T17:20:53.357Z,27.68
2022-08-14T17:25:58.775Z,27.64
2022-08-14T17:31:03.044Z,27.59
2022-08-14T17:36:23.101Z,27.44
2022-08-14T17:41:35.951Z,27.30
2022-08-14T17:46:43.326Z,27.22
2022-08-14T17:52:01.330Z,27.14
2022-08-14T17:57:10.515Z,27.08
2022-08-14T18:02:22.082Z,26.90
2022-08-14T18:08:00.093Z,26.64
2022-08-14T18:12:47.074Z,26.46
2022-08-14T18:17:54.000Z,26.28
2022-08-14T18:22:57.233Z,26.36
2022-08-14T18:28:01.515Z,26.39
2022-08-14T18:33:23.186Z,26.34
2022-08-14T18:39:00.096Z,26.33
2022-08-14T18:44:02.873Z,26.21
2022-08-14T18:49:17.343Z,26.18
2022-08-14T18:54:32.769Z,26.13
2022-08-14T18:59:39.090Z,26.06
2022-08-14T19:04:43.090Z,26.04
2022-08-14T19:09:58.582Z,25.94
2022-08-14T19:15:08.684Z,25.95
2022-08-14T19:20:12.145Z,25.91
2022-08-14T19:25:47.423Z,25.87
2022-08-14T19:31:37.345Z,25.81
2022-08-14T19:37:05.168Z,25.68
2022-08-14T19:42:14.055Z,25.62
2022-08-14T19:47:49.806Z,25.55
2022-08-14T19:53:16.727Z,25.51
2022-08-14T19:58:28.039Z,25.49
2022-08-14T20:03:59.288Z,25.47
2022-08-14T20:11:03.513Z,25.42
2022-08-14T20:14:30.519Z,25.44
2022-08-14T20:19:34.615Z,25.45
2022-08-14T20:24:44.836Z,25.37
2022-08-14T20:30:34.162Z,25.27
2022-08-14T20:35:55.688Z,25.29
2022-08-14T20:41:23.079Z,25.28
2022-08-14T20:46:42.453Z,25.26
2022-08-14T20:52:19.077Z,25.16
2022-08-14T20:57:54.949Z,25.01
2022-08-14T21:04:04.966Z,24.87
2022-08-14T21:10:04.907Z,24.73
2022-08-14T21:15:27.545Z,24.59
2022-08-14T21:20:42.309Z,24.43
2022-08-14T21:25:44.494Z,24.39
2022-08-14T21:31:18.532Z,24.40
2022-08-14T21:36:47.230Z,24.23
2022-08-14T21:41:58.401Z,23.99
2022-08-14T21:47:00.824Z,23.94
2022-08-14T21:52:52.226Z,23.91
2022-08-14T21:58:46.358Z,23.92
2022-08-14T22:03:55.339Z,23.99
2022-08-14T22:08:59.791Z,24.00
2022-08-14T22:14:25.490Z,24.00
2022-08-14T22:19:47.429Z,24.11
2022-08-14T22:25:01.030Z,24.09
2022-08-14T22:30:13.122Z,24.07
2022-08-14T22:35:16.005Z,24.16
2022-08-14T22:41:02.239Z,24.20
2022-08-14T22:45:55.512Z,24.28
2022-08-14T22:51:03.436Z,24.27
2022-08-14T22:56:20.511Z,24.35
2022-08-14T23:01:57.131Z,24.52
2022-08-14T23:08:59.940Z,24.44
2022-08-14T23:12:54.657Z,24.47
2022-08-14T23:18:03.657Z,24.30
2022-08-14T23:23:22.941Z,24.13
2022-08-14T23:28:34.218Z,23.93
2022-08-14T23:33:52.032Z,23.94
2022-08-14T23:38:56.721Z,23.93
2022-08-14T23:43:58.760Z,23.88
2022-08-14T23:49:01.935Z,23.89
2022-08-14T23:54:05.385Z,23.87
2022-08-14T23:59:27.418Z,23.89
